Time;durP1;ratioP1;P1;durP2;ratioP2;P2;SDS_P1;SDS_P2;PMS_P1;PMS_P2;Temp;Humidity;BMP_temperature;BMP_pressure;BME280_temperature;BME280_humidity;BME280_pressure;Samples;Min_cycle;Max_cycle;Signal;HPM_P1;HPM_P2
2021/08/22 00:01:14;;;;;;;11.25;6.57;;;563.30;1996.80;;;;;;5073439;28;20033;-85
2021/08/22 00:03:40;;;;;;;12.27;6.60;;;538.50;1996.80;;;;;;5073400;28;20020;-86
2021/08/22 00:06:06;;;;;;;11.23;7.28;;;538.50;1996.80;;;;;;5074078;28;20112;-86
2021/08/22 00:08:35;;;;;;;14.85;6.38;;;538.50;1996.80;;;;;;5074571;28;20017;-84
2021/08/22 00:11:01;;;;;;;14.90;7.07;;;538.50;1996.80;;;;;;5073931;28;20111;-83
2021/08/22 00:13:27;;;;;;;11.43;6.63;;;563.20;2022.40;;;;;;5074280;28;20485;-82
2021/08/22 00:15:54;;;;;;;13.90;7.72;;;563.30;1996.80;;;;;;5073939;28;20494;-84
2021/08/22 00:18:19;;;;;;;14.23;7.45;;;563.30;1996.80;;;;;;5067680;28;20477;-83
2021/08/22 00:20:47;;;;;;;14.43;6.85;;;563.50;1996.80;;;;;;5073095;28;20027;-76
2021/08/22 00:23:12;;;;;;;12.13;6.80;;;563.70;1971.20;;;;;;5073826;28;20024;-82
2021/08/22 00:25:38;;;;;;;10.65;6.97;;;563.80;1945.60;;;;;;5073743;28;20028;-76
2021/08/22 00:28:04;;;;;;;11.40;6.78;;;563.80;1945.60;;;;;;5073554;28;20028;-75
2021/08/22 00:30:30;;;;;;;13.00;7.78;;;563.90;1945.60;;;;;;5073311;28;20047;-83
2021/08/22 00:32:55;;;;;;;11.13;6.93;;;563.80;1945.60;;;;;;5073232;28;20033;-76
2021/08/22 00:35:21;;;;;;;12.48;6.45;;;564.00;1945.60;;;;;;5073726;28;20111;-83
2021/08/22 00:37:47;;;;;;;10.45;7.68;;;564.10;1920.00;;;;;;5073202;28;20395;-83
2021/08/22 00:40:13;;;;;;;13.15;7.75;;;564.00;1945.60;;;;;;5073466;28;20070;-82
2021/08/22 00:42:38;;;;;;;13.25;7.50;;;564.00;1945.60;;;;;;5073161;28;20492;-83
2021/08/22 00:45:09;;;;;;;13.30;7.38;;;564.00;1945.60;;;;;;5073351;28;20028;-81
2021/08/22 00:47:45;;;;;;;14.18;7.32;;;564.10;1945.60;;;;;;5073311;28;20032;-75
2021/08/22 00:50:13;;;;;;;12.00;7.50;;;564.10;1945.60;;;;;;5072054;28;20020;-82
2021/08/22 00:52:39;;;;;;;15.43;7.75;;;564.10;1920.00;;;;;;5073068;28;20028;-82
2021/08/22 00:55:06;;;;;;;14.35;8.02;;;564.10;1920.00;;;;;;5073271;28;20040;-75
2021/08/22 00:57:33;;;;;;;21.13;8.32;;;564.10;1920.00;;;;;;5072381;28;20046;-83
2021/08/22 01:00:00;;;;;;;17.85;7.85;;;563.80;1945.60;;;;;;5072739;28;20028;-83
2021/08/22 01:02:30;;;;;;;14.35;8.02;;;563.80;1971.20;;;;;;5071958;28;20024;-81
2021/08/22 01:05:36;;;;;;;15.55;8.68;;;563.80;1945.60;;;;;;5073280;28;20020;-82
2021/08/22 01:08:22;;;;;;;14.52;7.60;;;563.70;1971.20;;;;;;5070062;28;20028;-83
2021/08/22 01:10:52;;;;;;;12.63;8.05;;;563.50;1971.20;;;;;;5071126;28;20761;-81
2021/08/22 01:13:22;;;;;;;17.98;6.75;;;563.40;1996.80;;;;;;5073133;28;20029;-83
2021/08/22 01:15:53;;;;;;;15.38;7.32;;;563.20;1996.80;;;;;;5073002;28;20029;-81
2021/08/22 01:18:21;;;;;;;14.13;6.75;;;538.40;1996.80;;;;;;5073396;28;20071;-83
2021/08/22 01:21:08;;;;;;;14.63;7.65;;;538.30;1996.80;;;;;;5073197;28;20020;-79
2021/08/22 01:23:35;;;;;;;;;;;538.20;2022.40;;;;;;5072310;28;20099;-78
2021/08/22 01:26:02;;;;;;;13.05;7.53;;;538.30;1996.80;;;;;;5072736;28;20437;-75
2021/08/22 01:28:28;;;;;;;16.17;8.43;;;538.00;2048.00;;;;;;5072998;28;20074;-75
2021/08/22 01:31:01;;;;;;;15.15;8.48;;;537.90;2048.00;;;;;;5073072;28;20025;-83
2021/08/22 01:33:31;;;;;;;13.27;7.75;;;537.80;2073.60;;;;;;5071463;28;20012;-82
2021/08/22 01:35:59;;;;;;;16.73;8.98;;;537.80;2073.60;;;;;;5071958;28;20044;-80
2021/08/22 01:38:25;;;;;;;17.48;8.68;;;537.70;2073.60;;;;;;5069629;28;20082;-77
2021/08/22 01:40:51;;;;;;;24.67;11.15;;;512.90;2099.20;;;;;;5071929;28;20090;-82
2021/08/22 01:43:18;;;;;;;21.55;9.55;;;512.90;2048.00;;;;;;5071688;28;20020;-83
2021/08/22 01:45:44;;;;;;;19.25;9.45;;;512.80;2048.00;;;;;;5070033;28;20035;-83
2021/08/22 01:48:13;;;;;;;20.85;10.63;;;512.90;2022.40;;;;;;5073089;28;20073;-80
2021/08/22 01:50:40;;;;;;;15.95;9.55;;;512.50;2073.60;;;;;;5072662;28;20043;-82
2021/08/22 01:53:06;;;;;;;18.08;9.27;;;512.30;2073.60;;;;;;5072687;28;20082;-84
2021/08/22 01:55:33;;;;;;;25.65;11.52;;;512.00;2099.20;;;;;;5071268;28;20060;-83
2021/08/22 01:57:58;;;;;;;17.17;9.10;;;512.00;2124.80;;;;;;5073230;28;20040;-75
2021/08/22 02:00:24;;;;;;;14.48;8.45;;;487.30;2124.80;;;;;;5070711;28;20386;-85
2021/08/22 02:02:53;;;;;;;19.42;8.80;;;487.20;2124.80;;;;;;5073001;28;20104;-85
2021/08/22 02:05:21;;;;;;;11.50;7.55;;;512.00;2099.20;;;;;;5073208;28;20026;-78
2021/08/22 02:07:48;;;;;;;16.27;7.88;;;512.00;2099.20;;;;;;5069999;28;20116;-85
2021/08/22 02:10:24;;;;;;;15.10;8.68;;;512.10;2099.20;;;;;;5071721;28;20041;-83
2021/08/22 02:12:52;;;;;;;17.98;8.40;;;512.10;2099.20;;;;;;5068026;28;20021;-77
2021/08/22 02:15:29;;;;;;;11.73;8.13;;;512.20;2099.20;;;;;;5072632;28;20020;-79
2021/08/22 02:18:00;;;;;;;15.52;9.00;;;512.20;2099.20;;;;;;5072360;28;20099;-84
2021/08/22 02:20:26;;;;;;;16.30;8.93;;;512.50;2073.60;;;;;;5072320;28;20027;-85
2021/08/22 02:22:54;;;;;;;20.65;9.57;;;512.50;2073.60;;;;;;5075928;28;20056;-84
2021/08/22 02:25:20;;;;;;;19.50;8.85;;;512.60;2073.60;;;;;;5075841;28;20017;-81
2021/08/22 02:27:46;;;;;;;22.58;8.95;;;512.70;2048.00;;;;;;5075867;28;20095;-82
2021/08/22 02:30:13;;;;;;;14.52;8.07;;;512.90;2022.40;;;;;;5075773;28;20028;-83
2021/08/22 02:32:39;;;;;;;16.58;9.02;;;512.90;2022.40;;;;;;5075771;28;20016;-85
2021/08/22 02:35:06;;;;;;;20.80;8.38;;;537.90;2048.00;;;;;;5075837;28;20032;-76
2021/08/22 02:37:32;;;;;;;19.77;9.63;;;537.70;2048.00;;;;;;5075660;28;20017;-81
2021/08/22 02:39:58;;;;;;;21.15;9.27;;;537.80;2022.40;;;;;;5075807;28;20035;-76
2021/08/22 02:42:24;;;;;;;18.02;9.02;;;537.90;2048.00;;;;;;5074700;28;20055;-84
2021/08/22 02:44:49;;;;;;;19.75;10.88;;;537.90;2073.60;;;;;;5074503;28;20040;-83
2021/08/22 02:47:15;;;;;;;13.10;8.65;;;538.00;2099.20;;;;;;5075683;28;20044;-85
2021/08/22 02:49:42;;;;;;;21.98;10.60;;;538.00;2124.80;;;;;;5074386;28;20490;-85
2021/08/22 02:52:09;;;;;;;16.40;9.65;;;538.10;2124.80;;;;;;5075525;28;20028;-76
2021/08/22 02:54:35;;;;;;;16.63;10.93;;;538.10;2150.40;;;;;;5075104;28;20062;-83
2021/08/22 02:57:00;;;;;;;24.35;11.95;;;538.10;2150.40;;;;;;5075651;28;20107;-82
2021/08/22 02:59:26;;;;;;;19.27;12.55;;;538.20;2150.40;;;;;;5075257;28;20025;-84
2021/08/22 03:01:52;;;;;;;21.23;11.98;;;538.30;2150.40;;;;;;5075379;28;20059;-75
2021/08/22 03:04:18;;;;;;;16.48;11.73;;;538.30;2150.40;;;;;;5075330;28;20113;-78
2021/08/22 03:06:43;;;;;;;19.30;12.05;;;538.40;2150.40;;;;;;5077984;28;20136;-82
2021/08/22 03:09:09;;;;;;;21.05;12.40;;;538.30;2150.40;;;;;;5087365;28;20021;-82
2021/08/22 03:11:35;;;;;;;20.15;13.27;;;538.30;2150.40;;;;;;5075280;28;20474;-83
2021/08/22 03:14:01;;;;;;;26.65;13.95;;;538.30;2150.40;;;;;;5075065;28;20104;-82
2021/08/22 03:16:27;;;;;;;27.60;13.60;;;538.30;2150.40;;;;;;5083975;28;20103;-75
2021/08/22 03:18:53;;;;;;;20.83;13.85;;;538.10;2176.00;;;;;;5076732;28;20035;-81
2021/08/22 03:21:19;;;;;;;24.77;13.75;;;538.10;2201.60;;;;;;5074974;28;20100;-74
2021/08/22 03:23:44;;;;;;;20.02;13.00;;;538.00;2201.60;;;;;;5074563;28;20044;-82
2021/08/22 03:26:10;;;;;;;19.15;13.48;;;538.10;2201.60;;;;;;5074780;28;20107;-81
2021/08/22 03:28:36;;;;;;;20.25;12.40;;;538.00;2201.60;;;;;;5074853;28;20078;-83
2021/08/22 03:31:03;;;;;;;21.77;13.35;;;538.00;2201.60;;;;;;5074728;28;20025;-83
2021/08/22 03:33:29;;;;;;;22.75;11.70;;;537.90;2227.20;;;;;;5068923;28;20016;-75
2021/08/22 03:35:55;;;;;;;17.55;11.38;;;537.80;2227.20;;;;;;5074956;28;20028;-84
2021/08/22 03:38:20;;;;;;;21.35;13.43;;;537.80;2176.00;;;;;;5074783;28;20047;-85
2021/08/22 03:40:46;;;;;;;21.52;12.43;;;537.80;2201.60;;;;;;5074623;28;20146;-86
2021/08/22 03:43:12;;;;;;;21.15;12.52;;;537.80;2176.00;;;;;;5074625;28;20020;-85
2021/08/22 03:45:38;;;;;;;30.60;14.25;;;537.80;2201.60;;;;;;5074216;28;20051;-83
2021/08/22 03:48:04;;;;;;;21.88;14.07;;;537.90;2201.60;;;;;;5074459;28;20526;-81
2021/08/22 03:50:29;;;;;;;20.25;14.82;;;537.70;2201.60;;;;;;5074240;28;20023;-86
2021/08/22 03:52:55;;;;;;;21.63;14.80;;;537.70;2227.20;;;;;;5074213;28;20021;-82
2021/08/22 03:55:21;;;;;;;22.52;14.68;;;512.90;2201.60;;;;;;5074108;28;20119;-83
2021/08/22 03:57:47;;;;;;;20.45;13.55;;;512.90;2176.00;;;;;;5073944;28;20017;-84
2021/08/22 04:00:14;;;;;;;25.95;14.45;;;512.70;2150.40;;;;;;5074195;28;20024;-85
2021/08/22 04:02:40;;;;;;;25.13;15.38;;;512.70;2176.00;;;;;;5073953;28;20051;-85
2021/08/22 04:05:09;;;;;;;23.00;14.65;;;512.50;2201.60;;;;;;5073908;28;20054;-86
2021/08/22 04:07:35;;;;;;;26.42;14.18;;;512.40;2227.20;;;;;;5073910;28;20139;-76
2021/08/22 04:10:01;;;;;;;18.80;14.25;;;512.40;2201.60;;;;;;5073710;28;20020;-75
2021/08/22 04:12:28;;;;;;;26.75;14.57;;;512.40;2201.60;;;;;;5072669;28;20074;-87
2021/08/22 04:14:54;;;;;;;25.48;15.73;;;512.40;2227.20;;;;;;5073904;28;20100;-84
2021/08/22 04:17:19;;;;;;;23.55;14.70;;;512.50;2227.20;;;;;;5084374;28;20047;-87
2021/08/22 04:19:45;;;;;;;23.30;15.13;;;512.70;2201.60;;;;;;5076960;28;20074;-76
2021/08/22 04:22:11;;;;;;;25.63;15.15;;;512.70;2201.60;;;;;;5074049;28;20017;-75
2021/08/22 04:24:37;;;;;;;24.80;14.68;;;512.70;2227.20;;;;;;5073707;28;20025;-75
2021/08/22 04:27:05;;;;;;;27.63;16.38;;;512.80;2227.20;;;;;;5072512;28;20036;-84
2021/08/22 04:29:34;;;;;;;24.30;16.98;;;512.80;2227.20;;;;;;5072413;28;20058;-75
2021/08/22 04:31:59;;;;;;;27.95;14.82;;;512.70;2252.80;;;;;;5073424;28;20029;-75
2021/08/22 04:34:25;;;;;;;23.23;15.77;;;512.90;2227.20;;;;;;5073038;28;20366;-79
2021/08/22 04:36:51;;;;;;;27.23;16.33;;;537.70;2227.20;;;;;;5082784;28;20495;-86
2021/08/22 04:39:16;;;;;;;23.73;16.25;;;537.80;2252.80;;;;;;5073170;28;20131;-87
2021/08/22 04:41:44;;;;;;;27.50;16.70;;;537.80;2252.80;;;;;;5073446;28;20104;-85
2021/08/22 04:44:09;;;;;;;34.95;20.63;;;538.00;2252.80;;;;;;5069807;28;20063;-82
2021/08/22 04:46:35;;;;;;;37.55;19.48;;;538.10;2278.40;;;;;;5071863;28;20090;-75
2021/08/22 04:49:01;;;;;;;28.13;18.55;;;538.20;2278.40;;;;;;5073321;28;20020;-81
2021/08/22 04:51:27;;;;;;;30.67;19.75;;;538.30;2278.40;;;;;;5073341;28;20098;-76
2021/08/22 04:53:52;;;;;;;29.73;17.60;;;538.30;2278.40;;;;;;5086612;28;20051;-83
2021/08/22 04:56:18;;;;;;;25.15;16.67;;;538.40;2278.40;;;;;;5073255;28;20029;-75
2021/08/22 04:58:44;;;;;;;24.10;17.95;;;538.50;2278.40;;;;;;5073384;28;20024;-74
2021/08/22 05:01:10;;;;;;;28.02;17.17;;;538.50;2278.40;;;;;;5073178;28;20028;-83
2021/08/22 05:03:36;;;;;;;25.70;16.88;;;563.30;2304.00;;;;;;5073014;28;20493;-83
2021/08/22 05:06:01;;;;;;;29.42;17.15;;;563.30;2278.40;;;;;;5072983;28;20072;-86
2021/08/22 05:08:27;;;;;;;28.50;15.77;;;563.40;2278.40;;;;;;5073161;28;20021;-75
2021/08/22 05:10:55;;;;;;;22.42;13.63;;;563.50;2252.80;;;;;;5071912;28;20044;-85
2021/08/22 05:13:21;;;;;;;24.20;13.13;;;563.50;2227.20;;;;;;5073361;28;20013;-85
2021/08/22 05:15:50;;;;;;;21.17;11.80;;;563.50;2227.20;;;;;;5073015;28;20052;-77
2021/08/22 05:18:16;;;;;;;18.17;11.70;;;563.60;2201.60;;;;;;5073005;28;20052;-82
2021/08/22 05:20:42;;;;;;;21.25;11.52;;;563.90;2176.00;;;;;;5072942;28;20020;-75
2021/08/22 05:23:07;;;;;;;44.00;18.13;;;563.70;2176.00;;;;;;5072806;28;20101;-75
2021/08/22 05:25:33;;;;;;;20.02;13.63;;;563.70;2176.00;;;;;;5072526;28;20021;-77
2021/08/22 05:27:59;;;;;;;22.45;14.48;;;563.80;2150.40;;;;;;5072593;28;20099;-80
2021/08/22 05:30:24;;;;;;;20.40;11.90;;;563.80;2150.40;;;;;;5071741;28;20039;-80
2021/08/22 05:32:50;;;;;;;16.20;10.68;;;563.80;2150.40;;;;;;5071165;28;20078;-75
2021/08/22 05:35:16;;;;;;;18.17;10.30;;;563.80;2124.80;;;;;;5072245;28;20021;-75
2021/08/22 05:37:41;;;;;;;16.90;9.77;;;563.90;2150.40;;;;;;5072489;28;20483;-79
2021/08/22 05:40:08;;;;;;;14.73;9.85;;;563.90;2150.40;;;;;;5072397;28;20024;-79
2021/08/22 05:42:34;;;;;;;19.02;10.98;;;563.90;2176.00;;;;;;5072554;28;20052;-76
2021/08/22 05:44:59;;;;;;;17.23;10.50;;;563.90;2176.00;;;;;;5072597;28;20056;-80
2021/08/22 05:47:25;;;;;;;22.17;10.68;;;564.00;2176.00;;;;;;5072120;28;20087;-80
2021/08/22 05:49:51;;;;;;;17.58;11.70;;;564.00;2176.00;;;;;;5071252;28;20371;-78
2021/08/22 05:52:16;;;;;;;20.85;11.68;;;564.10;2150.40;;;;;;5071380;28;20137;-81
2021/08/22 05:54:42;;;;;;;18.40;10.15;;;588.80;2124.80;;;;;;5071355;28;20067;-82
2021/08/22 05:57:08;;;;;;;23.48;11.18;;;588.80;2124.80;;;;;;5076528;28;20461;-78
2021/08/22 05:59:34;;;;;;;18.70;11.13;;;588.90;2099.20;;;;;;5073344;28;20024;-77
2021/08/22 06:02:00;;;;;;;16.73;10.10;;;589.00;2099.20;;;;;;5074929;28;20024;-77
2021/08/22 06:04:26;;;;;;;22.25;10.90;;;589.00;2099.20;;;;;;5075960;28;20091;-74
2021/08/22 06:06:52;;;;;;;20.08;11.27;;;589.00;2073.60;;;;;;5075720;28;20028;-75
2021/08/22 06:09:17;;;;;;;22.08;11.18;;;589.20;2073.60;;;;;;5075752;28;20013;-75
2021/08/22 06:11:43;;;;;;;19.45;9.88;;;589.20;2073.60;;;;;;5076003;28;20023;-79
2021/08/22 06:14:09;;;;;;;15.50;9.80;;;589.30;2073.60;;;;;;5074327;28;20750;-79
2021/08/22 06:16:35;;;;;;;16.00;9.98;;;589.40;2048.00;;;;;;5075773;28;20021;-77
2021/08/22 06:19:01;;;;;;;17.88;9.88;;;589.50;2022.40;;;;;;5075604;28;20023;-75
2021/08/22 06:21:27;;;;;;;14.48;9.27;;;589.50;2022.40;;;;;;5075644;28;20017;-77
2021/08/22 06:23:57;;;;;;;17.60;9.65;;;589.60;2022.40;;;;;;5075700;28;20025;-85
2021/08/22 06:26:25;;;;;;;16.30;9.13;;;589.70;2022.40;;;;;;5075546;28;20020;-75
2021/08/22 06:28:51;;;;;;;18.02;10.70;;;589.70;2022.40;;;;;;5075452;28;20153;-76
2021/08/22 06:31:17;;;;;;;13.68;8.68;;;614.40;2022.40;;;;;;5075452;28;20024;-75
2021/08/22 06:33:42;;;;;;;16.08;8.32;;;614.50;2022.40;;;;;;5082402;28;20016;-77
2021/08/22 06:36:08;;;;;;;18.73;8.60;;;614.60;2022.40;;;;;;5086731;28;20385;-74
2021/08/22 06:38:34;;;;;;;15.40;8.80;;;614.50;2048.00;;;;;;5078123;28;20385;-81
2021/08/22 06:41:00;;;;;;;16.67;9.77;;;614.70;1996.80;;;;;;5075502;28;20020;-75
2021/08/22 06:43:26;;;;;;;27.10;15.32;;;614.80;1996.80;;;;;;5075722;28;20170;-80
2021/08/22 06:45:51;;;;;;;19.65;10.20;;;614.90;1971.20;;;;;;5082456;28;20536;-75
2021/08/22 06:48:17;;;;;;;18.25;8.57;;;615.00;1971.20;;;;;;5088186;28;20581;-78
2021/08/22 06:50:43;;;;;;;14.95;7.82;;;615.20;1945.60;;;;;;5083170;28;20151;-83
2021/08/22 06:53:09;;;;;;;17.58;7.35;;;615.30;1945.60;;;;;;5075852;28;20090;-75
2021/08/22 06:55:35;;;;;;;11.93;6.93;;;615.30;1945.60;;;;;;5075452;28;20485;-79
2021/08/22 06:58:01;;;;;;;11.35;7.95;;;640.10;1920.00;;;;;;5094993;28;20039;-82
2021/08/22 07:00:27;;;;;;;13.80;8.68;;;640.20;1945.60;;;;;;5095363;28;20480;-78
2021/08/22 07:02:53;;;;;;;10.65;7.07;;;640.40;1894.40;;;;;;5095130;28;20016;-76
2021/08/22 07:05:18;;;;;;;12.23;6.60;;;640.50;1894.40;;;;;;5076978;28;20025;-77
2021/08/22 07:07:44;;;;;;;11.35;6.72;;;640.60;1843.20;;;;;;5072408;28;20040;-76
2021/08/22 07:10:10;;;;;;;12.73;6.95;;;640.70;1817.60;;;;;;5074606;28;20055;-77
2021/08/22 07:12:37;;;;;;;10.52;6.22;;;640.80;1817.60;;;;;;5077308;28;20020;-78
2021/08/22 07:15:04;;;;;;;14.20;6.72;;;665.60;1817.60;;;;;;5077937;28;20032;-76
2021/08/22 07:17:29;;;;;;;11.77;6.28;;;665.70;1766.40;;;;;;5089616;28;20031;-77
2021/08/22 07:19:55;;;;;;;11.18;5.95;;;665.90;1766.40;;;;;;5094983;28;20095;-76
2021/08/22 07:22:21;;;;;;;8.25;5.10;;;666.00;1740.80;;;;;;5084655;28;20036;-76
2021/08/22 07:24:47;;;;;;;17.00;6.63;;;666.20;1715.20;;;;;;5074616;28;20477;-78
2021/08/22 07:27:13;;;;;;;17.83;6.75;;;666.20;1740.80;;;;;;5072362;28;20048;-75
2021/08/22 07:29:39;;;;;;;10.15;6.57;;;666.40;1715.20;;;;;;5074598;28;20028;-75
2021/08/22 07:32:05;;;;;;;9.45;6.28;;;666.50;1740.80;;;;;;5074422;28;20029;-75
2021/08/22 07:34:31;;;;;;;10.52;6.18;;;691.20;1715.20;;;;;;5073907;28;20027;-75
2021/08/22 07:36:56;;;;;;;10.35;6.28;;;666.50;1715.20;;;;;;5074169;28;20028;-78
2021/08/22 07:39:22;;;;;;;8.82;5.57;;;691.20;1689.60;;;;;;5073867;28;20103;-76
2021/08/22 07:41:48;;;;;;;7.03;5.18;;;691.30;1664.00;;;;;;5070859;28;20040;-75
2021/08/22 07:44:14;;;;;;;8.00;5.28;;;691.40;1638.40;;;;;;5073538;28;20121;-77
2021/08/22 07:46:40;;;;;;;12.07;5.47;;;691.60;1638.40;;;;;;5063178;28;20045;-78
2021/08/22 07:49:05;;;;;;;9.10;4.70;;;691.70;1638.40;;;;;;5062793;28;20024;-80
2021/08/22 07:51:31;;;;;;;8.65;5.05;;;691.80;1612.80;;;;;;5094384;28;20027;-78
2021/08/22 07:53:57;;;;;;;8.98;5.10;;;691.80;1612.80;;;;;;5094209;28;20040;-77
2021/08/22 07:56:23;;;;;;;8.35;5.20;;;691.90;1612.80;;;;;;5073050;28;20081;-76
2021/08/22 07:58:48;;;;;;;9.98;6.05;;;691.90;1612.80;;;;;;5074064;28;20082;-78
2021/08/22 08:01:14;;;;;;;8.50;5.20;;;692.00;1587.20;;;;;;5078503;28;20056;-77
2021/08/22 08:03:40;;;;;;;14.00;5.75;;;692.10;1587.20;;;;;;5091678;28;20039;-77
2021/08/22 08:06:05;;;;;;;11.95;5.85;;;692.10;1587.20;;;;;;5089486;28;20396;-79
2021/08/22 08:08:31;;;;;;;13.18;5.97;;;716.90;1612.80;;;;;;5090955;28;20020;-76
2021/08/22 08:10:57;;;;;;;14.07;5.38;;;716.90;1612.80;;;;;;5079511;28;20151;-77
2021/08/22 08:13:22;;;;;;;16.20;5.90;;;717.00;1612.80;;;;;;5073609;28;20089;-78
2021/08/22 08:15:48;;;;;;;11.68;5.70;;;717.10;1612.80;;;;;;5073154;28;20098;-77
2021/08/22 08:18:14;;;;;;;9.15;4.82;;;717.10;1536.00;;;;;;5073362;28;20017;-80
2021/08/22 08:20:40;;;;;;;9.32;5.18;;;717.20;1484.80;;;;;;5070329;28;20032;-75
2021/08/22 08:23:05;;;;;;;10.32;4.68;;;717.30;1484.80;;;;;;5073032;28;20025;-76
2021/08/22 08:25:31;;;;;;;11.52;5.90;;;717.40;1484.80;;;;;;5072295;28;20020;-78
2021/08/22 08:27:57;;;;;;;9.43;4.95;;;717.40;1484.80;;;;;;5072714;28;20097;-78
2021/08/22 08:30:23;;;;;;;6.65;4.35;;;717.50;1510.40;;;;;;5070916;28;20055;-78
2021/08/22 08:32:49;;;;;;;5.80;4.30;;;717.70;1459.20;;;;;;5072885;28;20039;-78
2021/08/22 08:35:15;;;;;;;6.82;4.50;;;742.40;1510.40;;;;;;5072835;28;20031;-77
2021/08/22 08:37:41;;;;;;;9.95;4.35;;;742.40;1459.20;;;;;;5072892;28;20051;-79
2021/08/22 08:40:16;;;;;;;11.45;5.20;;;742.40;1433.60;;;;;;5071731;28;20029;-78
2021/08/22 08:42:55;;;;;;;10.00;4.75;;;742.40;1459.20;;;;;;5072698;28;20035;-77
2021/08/22 08:45:32;;;;;;;9.05;4.22;;;742.40;1433.60;;;;;;5071543;28;20024;-77
2021/08/22 08:47:58;;;;;;;7.32;4.78;;;742.40;1433.60;;;;;;5071799;28;20036;-77
2021/08/22 08:50:54;;;;;;;7.32;4.57;;;742.50;1408.00;;;;;;5072495;28;20485;-79
2021/08/22 08:53:29;;;;;;;8.30;4.55;;;742.50;1408.00;;;;;;5011080;28;20039;-79
2021/08/22 08:56:00;;;;;;;8.05;4.90;;;742.50;1433.60;;;;;;5007255;28;20053;-79
2021/08/22 08:58:26;;;;;;;10.15;4.03;;;742.60;1459.20;;;;;;5010781;28;20030;-78
2021/08/22 09:00:53;;;;;;;11.25;4.07;;;742.60;1484.80;;;;;;5008005;28;20038;-79
2021/08/22 09:03:20;;;;;;;5.93;4.07;;;742.60;1433.60;;;;;;5011540;28;20022;-81
2021/08/22 09:06:11;;;;;;;8.27;4.70;;;742.60;1459.20;;;;;;5013350;28;20026;-78
2021/08/22 09:08:55;;;;;;;6.65;3.83;;;742.80;1408.00;;;;;;4955521;28;20047;-79
2021/08/22 09:11:58;;;;;;;10.43;4.40;;;742.80;1382.40;;;;;;4948793;28;20039;-79
2021/08/22 09:15:01;;;;;;;6.07;4.20;;;742.80;1382.40;;;;;;4952855;28;20039;-80
2021/08/22 09:18:03;;;;;;;10.70;4.70;;;742.90;1356.80;;;;;;4951288;28;20514;-78
2021/08/22 09:20:29;;;;;;;11.25;3.80;;;742.90;1356.80;;;;;;4952311;28;20043;-77
2021/08/22 09:23:26;;;;;;;8.25;4.43;;;743.00;1331.20;;;;;;4952030;28;20039;-77
2021/08/22 09:26:28;;;;;;;6.38;3.40;;;743.00;1305.60;;;;;;4952308;29;20051;-76
2021/08/22 09:29:31;;;;;;;6.82;3.65;;;743.20;1356.80;;;;;;4951870;28;20113;-77
2021/08/22 09:32:56;;;;;;;5.07;3.67;;;743.20;1305.60;;;;;;5032939;28;20026;-76
2021/08/22 09:35:58;;;;;;;6.55;3.60;;;743.30;1280.00;;;;;;4980988;28;20054;-76
2021/08/22 09:38:42;;;;;;;5.78;3.58;;;743.30;1254.40;;;;;;4985704;28;20023;-78
2021/08/22 09:41:42;;;;;;;6.07;3.95;;;768.10;1254.40;;;;;;4982977;28;20038;-76
2021/08/22 09:44:23;;;;;;;10.43;3.75;;;768.30;1228.80;;;;;;4962993;28;20072;-75
2021/08/22 09:47:07;;;;;;;7.45;4.30;;;768.30;1203.20;;;;;;5023061;28;20495;-78
2021/08/22 09:50:06;;;;;;;5.57;3.25;;;768.50;1228.80;;;;;;5024723;28;20033;-75
2021/08/22 09:52:56;;;;;;;4.60;3.13;;;768.60;1228.80;;;;;;5023687;28;20038;-79
2021/08/22 09:55:49;;;;;;;5.57;3.47;;;768.80;1177.60;;;;;;5022280;28;20045;-79
2021/08/22 09:58:33;;;;;;;6.63;3.38;;;768.80;1203.20;;;;;;5022104;28;20061;-80
2021/08/22 10:01:06;;;;;;;5.70;4.05;;;768.90;1177.60;;;;;;5022859;28;20109;-76
2021/08/22 10:04:07;;;;;;;6.93;3.53;;;793.70;1152.00;;;;;;5026220;28;20052;-79
2021/08/22 10:06:51;;;;;;;8.13;3.83;;;793.70;1177.60;;;;;;4992333;28;20102;-77
2021/08/22 10:09:24;;;;;;;6.88;3.55;;;794.00;1152.00;;;;;;4994113;28;20615;-81
2021/08/22 10:12:02;;;;;;;4.35;3.53;;;794.20;1152.00;;;;;;4994378;28;20495;-78
2021/08/22 10:14:29;;;;;;;8.30;3.92;;;794.30;1152.00;;;;;;4996556;28;20034;-79
2021/08/22 10:16:56;;;;;;;5.43;3.58;;;794.40;1126.40;;;;;;4993864;28;20038;-81
2021/08/22 10:19:26;;;;;;;6.03;3.60;;;819.20;1152.00;;;;;;4997826;28;20037;-80
2021/08/22 10:22:18;;;;;;;6.15;3.40;;;819.30;1152.00;;;;;;4994567;28;20038;-77
2021/08/22 10:24:48;;;;;;;4.75;3.13;;;819.80;1126.40;;;;;;4995709;28;20026;-77
2021/08/22 10:27:33;;;;;;;5.72;3.70;;;819.80;1075.20;;;;;;4993571;28;20121;-79
2021/08/22 10:30:02;;;;;;;8.93;3.20;;;819.90;1100.80;;;;;;4992666;28;20038;-78
2021/08/22 10:32:51;;;;;;;6.70;2.75;;;819.90;1126.40;;;;;;4994149;28;20104;-78
2021/08/22 10:35:17;;;;;;;5.10;3.72;;;819.90;1024.00;;;;;;4997472;28;20093;-78
2021/08/22 10:37:44;;;;;;;6.20;3.55;;;820.10;1049.60;;;;;;4992114;28;20034;-77
2021/08/22 10:40:24;;;;;;;5.45;3.45;;;819.90;1075.20;;;;;;4993733;28;20536;-80
2021/08/22 10:42:57;;;;;;;6.30;3.78;;;820.10;1049.60;;;;;;5058715;28;20086;-79
2021/08/22 10:45:52;;;;;;;5.40;3.33;;;844.80;1075.20;;;;;;5087841;28;20563;-81
2021/08/22 10:48:24;;;;;;;4.95;3.30;;;820.10;1024.00;;;;;;5028422;28;20058;-80
2021/08/22 10:51:07;;;;;;;3.97;3.13;;;820.10;1024.00;;;;;;5032679;28;20037;-79
2021/08/22 10:53:37;;;;;;;6.13;3.53;;;844.80;998.40;;;;;;5032185;28;20165;-80
2021/08/22 10:56:21;;;;;;;5.40;3.10;;;845.20;1024.00;;;;;;5031238;28;20728;-78
2021/08/22 10:58:56;;;;;;;11.93;3.38;;;845.30;1049.60;;;;;;5031574;28;20055;-79
2021/08/22 11:01:23;;;;;;;5.43;3.58;;;845.60;1024.00;;;;;;5032545;28;20514;-77
2021/08/22 11:04:18;;;;;;;10.23;4.38;;;;;;;;;;5032330;28;21011;-79
2021/08/22 11:06:54;;;;;;;6.70;3.05;;;870.60;998.40;;;;;;4923794;29;20052;-77
2021/08/22 11:09:43;;;;;;;7.95;3.83;;;870.50;972.80;;;;;;4924096;29;20550;-79
2021/08/22 11:12:25;;;;;;;6.30;3.13;;;870.70;972.80;;;;;;4925966;29;20145;-76
2021/08/22 11:14:50;;;;;;;5.30;3.83;;;870.80;972.80;;;;;;4921532;29;20102;-80
2021/08/22 11:17:16;;;;;;;4.97;3.45;;;870.90;972.80;;;;;;4928312;29;20183;-79
2021/08/22 11:19:42;;;;;;;4.50;3.42;;;870.80;972.80;;;;;;4934458;29;20552;-77
2021/08/22 11:22:27;;;;;;;6.90;3.50;;;870.40;972.80;;;;;;4935348;29;20036;-81
2021/08/22 11:24:55;;;;;;;7.95;3.72;;;870.40;998.40;;;;;;4942527;28;20077;-80
2021/08/22 11:27:23;;;;;;;5.72;3.88;;;870.50;972.80;;;;;;4973648;28;20039;-76
2021/08/22 11:30:11;;;;;;;6.60;3.63;;;845.70;998.40;;;;;;4974492;28;20085;-77
2021/08/22 11:32:47;;;;;;;4.68;3.35;;;870.70;998.40;;;;;;4992233;28;20031;-79
2021/08/22 11:35:16;;;;;;;9.82;3.85;;;870.80;972.80;;;;;;4991080;28;20019;-79
2021/08/22 11:37:43;;;;;;;19.35;13.20;;;870.90;921.60;;;;;;4981390;28;20073;-80
2021/08/22 11:40:21;;;;;;;4.57;3.20;;;871.00;947.20;;;;;;4981777;28;20058;-77
2021/08/22 11:42:53;;;;;;;5.85;3.22;;;870.90;921.60;;;;;;5016183;28;20051;-79
2021/08/22 11:45:21;;;;;;;4.95;3.20;;;870.90;921.60;;;;;;5072872;28;20036;-79
2021/08/22 11:47:47;;;;;;;5.97;3.17;;;870.90;896.00;;;;;;5081545;28;20393;-77
2021/08/22 11:50:15;;;;;;;4.32;3.35;;;870.90;921.60;;;;;;5074160;28;20027;-78
2021/08/22 11:52:46;;;;;;;5.25;3.30;;;870.90;921.60;;;;;;5073804;28;20044;-82
2021/08/22 11:55:14;;;;;;;7.95;2.97;;;870.90;947.20;;;;;;5073936;28;20089;-77
2021/08/22 11:57:41;;;;;;;5.35;3.22;;;871.00;921.60;;;;;;5073557;28;20035;-79
2021/08/22 12:00:12;;;;;;;5.63;2.75;;;871.10;921.60;;;;;;5073575;28;20033;-79
2021/08/22 12:02:38;;;;;;;4.47;3.38;;;871.10;921.60;;;;;;5073224;28;20389;-78
2021/08/22 12:05:21;;;;;;;7.15;3.40;;;871.20;921.60;;;;;;5073694;28;20020;-77
2021/08/22 12:08:00;;;;;;;5.30;3.33;;;871.20;947.20;;;;;;5071039;28;20449;-78
2021/08/22 12:10:28;;;;;;;5.38;3.15;;;870.70;947.20;;;;;;5071876;28;20021;-77
2021/08/22 12:12:54;;;;;;;6.43;3.13;;;870.90;947.20;;;;;;5073165;28;20032;-82
2021/08/22 12:15:38;;;;;;;8.98;3.63;;;871.30;921.60;;;;;;5073025;28;20092;-79
2021/08/22 12:18:21;;;;;;;10.35;3.92;;;871.00;921.60;;;;;;5068372;28;20036;-79
2021/08/22 12:20:54;;;;;;;5.43;3.25;;;870.70;921.60;;;;;;5071983;28;20320;-80
2021/08/22 12:23:31;;;;;;;5.57;3.28;;;845.70;947.20;;;;;;5071742;28;20021;-78
2021/08/22 12:26:18;;;;;;;5.18;3.28;;;845.50;972.80;;;;;;5071959;28;20035;-81